Latest Coastal Weather Observations for Bairnsdale

IDV60701

Issued at 2:25 am EST Thursday 21 August 2014 (issued every 10 minutes, with the page automatically refreshed every 10 minutes)

About coastal observations | Map of coastal stations | Coastal observations for VIC | Marine services | Other Formats
Station Details ID: 085279 Name: BAIRNSDALE AIRPORT Lat: -37.88 Lon: 147.57 Height: 49.4 m
Data from the previous 72 hours. | See also: Recent months at Bairnsdale
Date/Time
EST
Temp

°C
Wind Pressure Rain
since 9am
mm
Weather Cloud Vis
km
Sea
Height
m
Swell
Dir
 
Speed
knots
Gust
knots
hPa Trend Height
m
Period
s
Dir
21/02:00am 9.1 E 6 7 1029.1 - 0.0 - Cloudy 10 - - - -
21/01:30am 9.3 ENE 7 8 1029.2 - 0.0 - Cloudy 10 - - - -
21/01:00am 9.1 E 4 6 1029.3 - 0.0 - Cloudy 10 - - - -
21/12:30am 9.2 NE 3 4 1029.3 - 0.0 - Cloudy 10 - - - -
21/12:00am 9.0 NE 4 5 1029.2 - 0.0 - Cloudy 10 - - - -
 
Date/Time
EST
Temp

°C
Wind Pressure Rain
since 9am
mm
Weather Cloud Vis
km
Sea
Height
m
Swell
Dir
 
Speed
knots
Gust
knots
hPa Trend Height
m
Period
s
Dir
20/11:30pm 9.0 ENE 4 5 1029.3 - 0.0 - Cloudy 10 - - - -
20/11:00pm 9.0 ENE 4 6 1029.1 - 0.0 - Cloudy 10 - - - -
20/10:30pm 9.3 E 3 5 1029.0 - 0.0 - Cloudy 10 - - - -
20/10:00pm 9.2 NE 4 5 1029.3 - 0.0 - Cloudy 10 - - - -
20/09:30pm 9.4 E 4 7 1029.2 - 0.0 - Cloudy 10 - - - -
20/09:00pm 9.5 E 3 5 1029.2 - 0.0 - Cloudy 10 - - - -
20/08:30pm 9.6 SE 4 6 1029.1 - 0.0 - Cloudy 10 - - - -
20/08:00pm 9.3 ESE 5 6 1029.0 - 0.0 - Cloudy 10 - - - -
20/07:30pm 9.4 ESE 5 6 1028.9 - 0.0 - Cloudy 10 - - - -
20/07:00pm 9.1 ESE 5 6 1028.7 - 0.0 - Cloudy 10 - - - -
20/06:30pm 9.6 ESE 4 6 1028.3 - 0.0 - Cloudy 10 - - - -
20/06:00pm 9.8 SE 5 7 1027.8 - 0.0 - Cloudy 10 - - - -
20/05:30pm 10.2 ESE 3 4 1027.5 - 0.0 - Cloudy 10 - - - -
20/05:00pm 10.8 E 5 6 1027.2 - 0.0 - Cloudy 10 - - - -
20/04:30pm 11.6 ESE 3 5 1027.0 - 0.0 - Partly cloudy 10 - - - -
20/04:00pm 12.1 S 4 7 1026.8 - 0.0 - - 10 - - - -
20/03:30pm 12.2 S 7 9 1026.7 - 0.0 - Partly cloudy 10 - - - -
20/03:00pm 11.8 SSW 8 10 1026.5 - 0.0 - Mostly cloudy 10 - - - -
20/02:30pm 12.1 S 7 9 1026.3 - 0.0 - Cloudy 10 - - - -
20/02:00pm 11.8 S 5 8 1026.3 - 0.0 - Cloudy 10 - - - -
20/01:30pm 11.9 S 6 9 1026.3 - 0.0 - Cloudy 10 - - - -
20/01:00pm 12.5 E 4 6 1026.5 - 0.0 - Cloudy 10 - - - -
20/12:30pm 12.4 NNW 5 7 1026.6 - 0.0 - Cloudy 10 - - - -
20/12:00pm 12.6 NNW 4 7 1027.0 - 0.0 - Mostly cloudy 10 - - - -
20/11:30am 11.4 WNW 3 7 1027.3 - 0.0 - Cloudy 10 - - - -
20/11:00am 11.3 NW 4 6 1027.5 - 0.0 - Cloudy 10 - - - -
20/10:30am 11.5 WNW 4 6 1027.5 - 0.0 - Cloudy 10 - - - -
20/10:00am 11.0 W 4 6 1027.4 - 0.0 - Cloudy 10 - - - -
20/09:30am 10.6 W 5 7 1027.3 - 0.0 - Cloudy 10 - - - -
20/09:00am 10.0 W 5 7 1027.2 - 0.0 - Cloudy 10 - - - -
20/08:30am 9.6 W 5 6 1027.0 - 0.0 - Cloudy 10 - - - -
20/08:00am 8.8 WNW 4 5 1026.7 - 0.0 - Cloudy 10 - - - -
20/07:30am 8.4 WNW 5 6 1026.5 - 0.0 - Cloudy 10 - - - -
20/07:00am 7.8 WNW 5 6 1026.2 - 0.0 - Cloudy 10 - - - -
20/06:30am 7.8 WNW 5 6 1026.0 - 0.0 - Cloudy 10 - - - -
20/06:00am 7.9 NW 5 6 1025.7 - 0.0 - Cloudy 10 - - - -
20/05:30am 8.0 NW 5 7 1025.6 - 0.0 - Cloudy 10 - - - -
20/05:00am 7.9 NW 5 6 1025.6 - 0.0 - Cloudy 10 - - - -
20/04:30am 7.9 WNW 5 6 1025.5 - 0.0 - Cloudy 10 - - - -
20/04:00am 8.1 WNW 5 6 1025.3 - 0.0 - Cloudy 10 - - - -
20/03:30am 8.2 W 4 6 1025.3 - 0.0 - Cloudy 10 - - - -
20/03:00am 8.4 WNW 5 6 1025.2 - 0.0 - Cloudy 10 - - - -
20/02:30am 8.5 WNW 5 6 1025.2 - 0.0 - Cloudy 10 - - - -
20/02:00am 8.6 WNW 4 5 1025.3 - 0.0 - Cloudy 10 - - - -
20/01:30am 8.7 WSW 4 5 1025.5 - 0.0 - Cloudy 10 - - - -
20/01:00am 8.9 W 4 5 1025.3 - 0.0 - Cloudy 10 - - - -
20/12:30am 8.8 WSW 5 5 1025.3 - 0.0 - Cloudy 10 - - - -
20/12:00am 8.8 W 5 5 1025.5 - 0.0 - Cloudy 10 - - - -
 
Date/Time
EST
Temp

°C
Wind Pressure Rain
since 9am
mm
Weather Cloud Vis
km
Sea
Height
m
Swell
Dir
 
Speed
knots
Gust
knots
hPa Trend Height
m
Period
s
Dir
19/11:30pm 9.0 WSW 5 7 1025.4 - 0.0 - Cloudy 10 - - - -
19/11:00pm 9.1 NNW 5 6 1025.4 - 0.0 - Cloudy 10 - - - -
19/10:30pm 8.7 CALM 0 0 1025.4 - 0.0 - Cloudy 10 - - - -
19/10:00pm 8.6 CALM 0 0 1025.4 - 0.0 - Cloudy 10 - - - -
19/09:30pm 8.3 CALM 0 0 1025.4 - 0.0 - Cloudy 10 - - - -
19/09:00pm 8.2 CALM 0 0 1025.3 - 0.0 - Mostly cloudy 10 - - - -
19/08:30pm 8.5 CALM 0 0 1025.2 - 0.0 - Cloudy 10 - - - -
19/08:00pm 8.6 CALM 0 0 1025.1 - 0.0 - Cloudy 10 - - - -
19/07:30pm 9.3 CALM 0 0 1025.1 - 0.0 - Partly cloudy 10 - - - -
19/07:00pm 9.6 CALM 0 0 1024.9 - 0.0 - Partly cloudy 10 - - - -
19/06:30pm 10.3 CALM 0 2 1024.6 - 0.0 - Cloudy 10 - - - -
19/06:00pm 10.9 S 4 4 1024.3 - 0.0 - Cloudy 10 - - - -
19/05:30pm 11.2 SSE 3 4 1023.9 - 0.0 - Cloudy 10 - - - -
19/05:00pm 11.5 SSE 4 5 1023.9 - 0.0 - Cloudy 10 - - - -
19/04:30pm 11.7 SSE 5 6 1023.7 - 0.0 - Cloudy 10 - - - -
19/04:00pm 11.9 S 4 6 1023.7 - 0.0 - Cloudy 10 - - - -
19/03:30pm 12.0 SSE 5 7 1023.6 - 0.0 - Cloudy 10 - - - -
19/03:00pm 12.0 SSE 7 8 1023.6 - 0.0 - Cloudy 10 - - - -
19/02:30pm 12.2 S 7 10 1023.5 - 0.0 - Cloudy 10 - - - -
19/02:00pm 12.1 S 8 10 1023.4 - 0.0 - Cloudy 10 - - - -
19/01:30pm 12.1 S 9 12 1023.6 - 0.0 - Partly cloudy 10 - - - -
19/01:00pm 12.5 S 8 13 1023.7 - 0.0 - Cloudy 10 - - - -
19/12:30pm 12.2 S 9 13 1023.9 - 0.0 - Cloudy 10 - - - -
19/12:00pm 12.5 S 9 13 1024.1 - 0.0 - Cloudy 10 - - - -
19/11:30am 12.2 S 11 15 1024.4 - 0.0 - Partly cloudy 10 - - - -
19/11:00am 12.3 S 11 15 1024.5 - 0.0 - Partly cloudy 10 - - - -
19/10:30am 12.0 S 12 16 1024.4 - 0.0 - Partly cloudy 10 - - - -
19/10:00am 12.1 S 12 15 1024.2 - 0.0 - Partly cloudy 10 - - - -
19/09:30am 11.7 S 12 15 1024.1 - 0.0 - Partly cloudy 10 - - - -
19/09:00am 11.7 S 11 15 1023.9 - 4.4 - Cloudy 10 - - - -
19/08:30am 11.2 S 11 14 1023.8 - 4.4 - Partly cloudy 10 - - - -
19/08:00am 10.4 SSW 10 13 1023.4 - 4.4 - Cloudy - - - - -
19/07:30am 10.2 SSW 11 17 1023.2 - 4.4 - Partly cloudy - - - - -
19/07:00am 10.0 S 12 16 1022.7 - 4.4 - Partly cloudy - - - - -
19/06:57am 10.0 S 12 16 1022.7 - 4.4 - Cloudy - - - - -
19/06:30am 10.2 S 12 15 1022.4 - 4.2 - Cloudy - - - - -
19/06:00am 10.5 SSW 11 15 1022.0 - 3.8 Rain Cloudy - - - - -
19/05:58am 10.5 S 11 15 1022.0 - 3.6 - Partly cloudy - - - - -
19/05:52am 10.5 S 11 15 1021.9 - 3.4 - Partly cloudy - - - - -
19/05:30am 10.7 S 12 15 1021.8 - 3.0 - Partly cloudy - - - - -
19/05:00am 10.5 S 11 14 1021.5 - 3.0 - Partly cloudy - - - - -
19/04:30am 10.6 S 15 19 1021.3 - 3.0 - Partly cloudy - - - - -
19/04:00am 10.9 S 14 18 1021.1 - 3.0 - Cloudy - - - - -
19/03:30am 11.0 S 11 15 1021.0 - 2.8 - Partly cloudy - - - - -
19/03:00am 11.2 S 10 14 1021.1 - 2.0 Rain Cloudy - - - - -
19/02:55am 11.3 S 11 14 1021.1 - 2.0 - Partly cloudy - - - - -
19/02:30am 11.2 S 9 11 1021.2 - 1.8 - Partly cloudy - - - - -
19/02:09am 11.2 S 9 11 1021.3 - 1.8 - Partly cloudy - - - - -
19/02:00am 11.2 S 8 11 1021.3 - 1.8 - Partly cloudy - - - - -
19/01:50am 11.3 S 6 7 1021.4 - 1.8 - Partly cloudy - - - - -
19/01:30am 11.4 S 8 10 1021.3 - 1.2 - Partly cloudy - - - - -
19/01:00am 11.5 S 9 12 1021.3 - 1.2 - Partly cloudy - - - - -
19/12:30am 11.5 S 10 13 1021.2 - 1.2 - Partly cloudy - - - - -
19/12:00am 11.3 S 10 13 1021.3 - 1.2 - Cloudy - - - - -
 
Date/Time
EST
Temp

°C
Wind Pressure Rain
since 9am
mm
Weather Cloud Vis
km
Sea
Height
m
Swell
Dir
 
Speed
knots
Gust
knots
hPa Trend Height
m
Period
s
Dir
18/11:58pm 11.3 S 10 13 1021.2 - 1.2 - Partly cloudy - - - - -
18/11:33pm 11.6 S 11 14 1021.2 - 1.2 - Partly cloudy - - - - -
18/11:30pm 11.5 S 10 14 1021.1 - 1.2 - Partly cloudy - - - - -
18/11:00pm 11.5 S 11 14 1021.0 - 1.2 - Partly cloudy - - - - -
18/10:30pm 11.9 S 11 13 1021.0 - 1.0 - Partly cloudy - - - - -
18/10:00pm 11.9 S 11 15 1021.0 - 1.0 - Partly cloudy - - - - -
18/09:30pm 12.0 S 11 17 1020.8 - 1.0 - Partly cloudy - - - - -
18/09:00pm 12.0 S 11 13 1020.7 - 1.0 - Cloudy - - - - -
18/08:30pm 12.3 SSE 12 17 1020.6 - 1.0 - Partly cloudy 10 - - - -
18/08:00pm 12.4 SSE 12 17 1020.4 - 1.0 - Partly cloudy 10 - - - -
18/07:30pm 12.3 SSE 12 16 1020.2 - 1.0 - Partly cloudy 10 - - - -
18/07:00pm 12.4 SSE 13 17 1020.0 - 1.0 - Partly cloudy 10 - - - -
18/06:30pm 12.5 SSE 12 17 1019.7 - 1.0 - Partly cloudy 10 - - - -
18/06:00pm 12.5 SSE 11 17 1019.4 - 1.0 - Mostly cloudy 10 - - - -
18/05:30pm 12.6 SSE 13 16 1019.0 - 1.0 - Partly cloudy 10 - - - -
18/05:00pm 12.7 SSE 13 18 1018.7 - 1.0 - Partly cloudy 10 - - - -
18/04:30pm 12.9 SSE 14 19 1018.5 - 1.0 - Partly cloudy 10 - - - -
18/04:00pm 13.1 SSE 14 19 1018.4 - 1.0 - Partly cloudy 10 - - - -
18/03:30pm 13.0 SSE 15 22 1018.1 - 1.0 - Partly cloudy 10 - - - -
18/03:24pm 13.0 SSE 16 22 1018.1 - 1.0 - Partly cloudy 10 - - - -
18/03:00pm 13.1 SSE 16 22 1017.9 - 1.0 - Cloudy 10 - - - -
18/02:30pm 13.2 SSE 17 22 1017.7 - 1.0 - Cloudy 10 - - - -
18/02:00pm 13.2 SSE 17 22 1017.6 - 1.0 - Partly cloudy 10 - - - -
18/01:30pm 13.3 SSE 18 24 1017.4 - 1.0 - Partly cloudy 10 - - - -
18/01:00pm 13.2 SSE 17 23 1017.4 - 1.0 - Cloudy 10 - - - -
18/12:30pm 13.0 SSE 17 22 1017.5 - 1.0 - Cloudy 10 - - - -
18/12:00pm 12.5 SSE 17 22 1017.7 - 1.0 - Cloudy 10 - - - -
18/11:30am 12.5 SSE 17 23 1017.8 - 1.0 - Cloudy 10 - - - -
18/11:00am 12.6 SSE 18 25 1017.8 - 1.0 - Cloudy 10 - - - -
18/10:38am 12.0 SSE 18 28 1018.0 - 1.0 - Cloudy 10 - - - -
18/10:30am 12.1 SSE 17 23 1018.0 - 1.0 - Cloudy 8 - - - -
18/10:00am 12.0 SSE 19 26 1017.9 - 0.8 - Cloudy 10 - - - -
18/09:36am 11.9 SSE 17 23 1017.7 - 0.8 - Cloudy 8 - - - -
18/09:30am 11.8 SSE 17 23 1017.6 - 0.8 - Cloudy 7 - - - -
18/09:13am 11.8 SSE 17 25 1017.5 - 0.2 - Cloudy 5 - - - -
18/09:02am 11.8 SSE 19 29 1017.3 - 0.0 - Cloudy 8 - - - -
18/09:00am 11.9 SSE 18 27 1017.4 - 28.6 Recent precip. Cloudy 8 - - - -
18/08:59am 11.9 SSE 17 27 1017.4 - 28.6 - Cloudy 8 - - - -
18/08:40am 11.8 SSE 18 25 1017.3 - 28.4 - Cloudy 9 - - - -
18/08:30am 11.7 SSE 17 23 1017.2 - 28.4 - Cloudy 5 - - - -
18/08:00am 11.6 S 18 24 1017.2 - 26.6 - Cloudy 5 - - - -
18/07:41am 11.6 S 17 23 1017.0 - 25.2 - Cloudy 5 - - - -
18/07:30am 11.6 S 19 24 1016.8 - 24.6 - Cloudy 6 - - - -
18/07:19am 11.5 S 18 24 1016.7 - 24.2 - Cloudy 7 - - - -
18/07:04am 11.5 S 17 22 1016.6 - 23.8 - Cloudy 5 - - - -
18/07:00am 11.4 S 17 21 1016.6 - 23.6 - Cloudy 6 - - - -
18/06:57am 11.4 S 17 23 1016.6 - 23.6 - Cloudy 7 - - - -
18/06:30am 11.2 S 18 26 1016.4 - 22.4 - Cloudy 5 - - - -
18/06:25am 11.2 S 17 26 1016.4 - 22.2 - Cloudy 5 - - - -
18/06:19am 11.2 S 15 21 1016.3 - 22.0 - Cloudy 6 - - - -
18/06:00am 11.0 S 15 19 1016.2 - 21.4 Rain Cloudy 5 - - - -
18/05:30am 10.9 S 17 24 1016.1 - 19.6 - Cloudy 4 - - - -
18/05:26am 10.9 S 17 24 1016.0 - 19.2 - Cloudy 5 - - - -
18/05:00am 10.9 S 17 23 1015.9 - 18.6 - Cloudy 9 - - - -
18/04:30am 11.0 S 17 25 1015.8 - 17.8 - Cloudy 8 - - - -
18/04:02am 11.0 S 17 27 1015.8 - 17.4 - Cloudy 8 - - - -
18/04:01am 11.0 S 17 27 1015.8 - 17.4 - Cloudy 8 - - - -
18/04:00am 11.1 S 16 22 1015.8 - 17.4 - Cloudy 9 - - - -
18/03:48am 11.0 S 17 23 1015.7 - 17.0 - Cloudy 5 - - - -
18/03:36am 10.9 S 18 25 1015.6 - 16.6 - Cloudy 7 - - - -
18/03:30am 10.9 S 17 21 1015.7 - 16.6 - Cloudy 6 - - - -
18/03:26am 10.9 S 17 22 1015.7 - 16.4 - Cloudy 5 - - - -
18/03:23am 10.9 S 17 23 1015.8 - 16.4 - Cloudy 6 - - - -
18/03:00am 10.9 S 17 23 1015.9 - 15.2 Rain Mostly cloudy 4 - - - -
18/02:30am 10.9 S 17 24 1016.2 - 12.6 - Cloudy 5 - - - -

Other Formats:

Comma delimited format used in spreadsheet applications
http://www.bom.gov.au/fwo/IDV60701/IDV60701.94912.axf

JavaScript Object Notation format (JSON) in row-major order
http://www.bom.gov.au/fwo/IDV60701/IDV60701.94912.json